sensor_id;sensor_type;location;lat;lon;timestamp;temperature;humidity
16929;DHT22;8581;47.334;11.190;2023-05-21T00:00:49;10.00;99.90
16929;DHT22;8581;47.334;11.190;2023-05-21T00:03:20;10.00;99.90
16929;DHT22;8581;47.334;11.190;2023-05-21T00:05:52;10.10;99.90
16929;DHT22;8581;47.334;11.190;2023-05-21T00:08:24;10.20;99.90
16929;DHT22;8581;47.334;11.190;2023-05-21T00:10:55;10.30;99.90
16929;DHT22;8581;47.334;11.190;2023-05-21T00:13:27;10.20;99.90
16929;DHT22;8581;47.334;11.190;2023-05-21T00:15:59;10.30;99.90
16929;DHT22;8581;47.334;11.190;2023-05-21T00:18:31;10.20;99.90
16929;DHT22;8581;47.334;11.190;2023-05-21T00:21:03;10.20;99.90
16929;DHT22;8581;47.334;11.190;2023-05-21T00:23:34;10.10;99.90
16929;DHT22;8581;47.334;11.190;2023-05-21T00:26:06;10.10;99.90
16929;DHT22;8581;47.334;11.190;2023-05-21T00:28:37;10.20;99.90
16929;DHT22;8581;47.334;11.190;2023-05-21T00:31:09;10.20;99.90
16929;DHT22;8581;47.334;11.190;2023-05-21T00:33:41;10.10;99.90
16929;DHT22;8581;47.334;11.190;2023-05-21T00:36:12;10.00;99.90
16929;DHT22;8581;47.334;11.190;2023-05-21T00:38:44;10.00;99.90
16929;DHT22;8581;47.334;11.190;2023-05-21T00:41:16;9.90;99.90
16929;DHT22;8581;47.334;11.190;2023-05-21T00:43:48;9.90;99.90
16929;DHT22;8581;47.334;11.190;2023-05-21T00:46:20;9.90;99.90
16929;DHT22;8581;47.334;11.190;2023-05-21T00:48:51;9.80;99.90
16929;DHT22;8581;47.334;11.190;2023-05-21T00:51:23;9.70;99.90
16929;DHT22;8581;47.334;11.190;2023-05-21T00:53:55;9.60;99.90
16929;DHT22;8581;47.334;11.190;2023-05-21T00:56:27;9.50;99.90
16929;DHT22;8581;47.334;11.190;2023-05-21T00:58:58;9.60;99.90
16929;DHT22;8581;47.334;11.190;2023-05-21T01:01:30;9.70;99.90
16929;DHT22;8581;47.334;11.190;2023-05-21T01:04:02;9.60;99.90
16929;DHT22;8581;47.334;11.190;2023-05-21T01:06:33;9.70;99.90
16929;DHT22;8581;47.334;11.190;2023-05-21T01:09:05;9.70;99.90
16929;DHT22;8581;47.334;11.190;2023-05-21T01:11:38;9.70;99.90
16929;DHT22;8581;47.334;11.190;2023-05-21T01:14:09;9.60;99.90
16929;DHT22;8581;47.334;11.190;2023-05-21T01:16:42;9.40;99.90
16929;DHT22;8581;47.334;11.190;2023-05-21T01:19:14;9.10;99.90
16929;DHT22;8581;47.334;11.190;2023-05-21T01:21:45;9.20;99.90
16929;DHT22;8581;47.334;11.190;2023-05-21T01:24:16;9.20;99.90
16929;DHT22;8581;47.334;11.190;2023-05-21T01:26:48;9.20;99.90
16929;DHT22;8581;47.334;11.190;2023-05-21T01:29:20;9.10;99.90
16929;DHT22;8581;47.334;11.190;2023-05-21T01:34:45;9.00;99.90
16929;DHT22;8581;47.334;11.190;2023-05-21T01:37:17;8.90;99.90
16929;DHT22;8581;47.334;11.190;2023-05-21T01:39:51;9.00;99.90
16929;DHT22;8581;47.334;11.190;2023-05-21T01:42:22;8.90;99.90
16929;DHT22;8581;47.334;11.190;2023-05-21T01:44:54;8.90;99.90
16929;DHT22;8581;47.334;11.190;2023-05-21T01:47:25;8.90;99.90
16929;DHT22;8581;47.334;11.190;2023-05-21T01:49:58;8.90;99.90
16929;DHT22;8581;47.334;11.190;2023-05-21T01:52:29;8.80;99.90
16929;DHT22;8581;47.334;11.190;2023-05-21T01:55:00;8.50;99.90
16929;DHT22;8581;47.334;11.190;2023-05-21T01:57:32;8.40;99.90
16929;DHT22;8581;47.334;11.190;2023-05-21T02:00:04;8.40;99.90
16929;DHT22;8581;47.334;11.190;2023-05-21T02:02:36;8.60;99.90
16929;DHT22;8581;47.334;11.190;2023-05-21T02:05:08;8.60;99.90
16929;DHT22;8581;47.334;11.190;2023-05-21T02:07:40;8.70;99.90
16929;DHT22;8581;47.334;11.190;2023-05-21T02:10:12;8.60;99.90
16929;DHT22;8581;47.334;11.190;2023-05-21T02:12:43;8.30;99.90
16929;DHT22;8581;47.334;11.190;2023-05-21T02:15:20;8.30;99.90
16929;DHT22;8581;47.334;11.190;2023-05-21T02:17:52;8.30;99.90
16929;DHT22;8581;47.334;11.190;2023-05-21T02:20:23;8.30;99.90
16929;DHT22;8581;47.334;11.190;2023-05-21T02:22:55;8.30;99.90
16929;DHT22;8581;47.334;11.190;2023-05-21T02:25:27;8.40;99.90
16929;DHT22;8581;47.334;11.190;2023-05-21T02:27:58;8.30;99.90
16929;DHT22;8581;47.334;11.190;2023-05-21T02:30:30;8.30;99.90
16929;DHT22;8581;47.334;11.190;2023-05-21T02:33:01;8.40;99.90
16929;DHT22;8581;47.334;11.190;2023-05-21T02:35:33;8.50;99.90
16929;DHT22;8581;47.334;11.190;2023-05-21T02:38:05;8.60;99.90
16929;DHT22;8581;47.334;11.190;2023-05-21T02:40:36;8.50;99.90
16929;DHT22;8581;47.334;11.190;2023-05-21T02:43:08;8.30;99.90
16929;DHT22;8581;47.334;11.190;2023-05-21T02:45:40;8.20;99.90
16929;DHT22;8581;47.334;11.190;2023-05-21T02:48:11;8.10;99.90
16929;DHT22;8581;47.334;11.190;2023-05-21T02:50:43;8.10;99.90
16929;DHT22;8581;47.334;11.190;2023-05-21T02:53:14;8.00;99.90
16929;DHT22;8581;47.334;11.190;2023-05-21T02:55:46;8.00;99.90
16929;DHT22;8581;47.334;11.190;2023-05-21T02:58:18;8.00;99.90
16929;DHT22;8581;47.334;11.190;2023-05-21T03:00:50;8.00;99.90
16929;DHT22;8581;47.334;11.190;2023-05-21T03:03:21;8.00;99.90
16929;DHT22;8581;47.334;11.190;2023-05-21T03:05:53;8.10;99.90
16929;DHT22;8581;47.334;11.190;2023-05-21T03:08:24;8.10;99.90
16929;DHT22;8581;47.334;11.190;2023-05-21T03:10:56;8.20;99.90
16929;DHT22;8581;47.334;11.190;2023-05-21T03:13:28;8.40;99.90
16929;DHT22;8581;47.334;11.190;2023-05-21T03:15:59;8.50;99.90
16929;DHT22;8581;47.334;11.190;2023-05-21T03:18:31;8.60;99.90
16929;DHT22;8581;47.334;11.190;2023-05-21T03:21:03;8.50;99.90
16929;DHT22;8581;47.334;11.190;2023-05-21T03:23:34;8.50;99.90
16929;DHT22;8581;47.334;11.190;2023-05-21T03:26:06;8.20;99.90
16929;DHT22;8581;47.334;11.190;2023-05-21T03:28:38;8.30;99.90
16929;DHT22;8581;47.334;11.190;2023-05-21T03:31:09;8.20;99.90
16929;DHT22;8581;47.334;11.190;2023-05-21T03:33:41;8.20;99.90
16929;DHT22;8581;47.334;11.190;2023-05-21T03:36:12;8.20;99.90
16929;DHT22;8581;47.334;11.190;2023-05-21T03:38:45;8.20;99.90
16929;DHT22;8581;47.334;11.190;2023-05-21T03:41:16;8.10;99.90
16929;DHT22;8581;47.334;11.190;2023-05-21T03:43:48;8.10;99.90
16929;DHT22;8581;47.334;11.190;2023-05-21T03:46:20;8.20;99.90
16929;DHT22;8581;47.334;11.190;2023-05-21T03:48:51;8.30;99.90
16929;DHT22;8581;47.334;11.190;2023-05-21T03:51:23;8.20;99.90
16929;DHT22;8581;47.334;11.190;2023-05-21T03:53:56;8.10;99.90
16929;DHT22;8581;47.334;11.190;2023-05-21T03:56:26;8.20;99.90
16929;DHT22;8581;47.334;11.190;2023-05-21T03:58:58;8.10;99.90
16929;DHT22;8581;47.334;11.190;2023-05-21T04:01:29;8.30;99.90
16929;DHT22;8581;47.334;11.190;2023-05-21T04:04:01;8.40;99.90
16929;DHT22;8581;47.334;11.190;2023-05-21T04:06:33;8.30;99.90
16929;DHT22;8581;47.334;11.190;2023-05-21T04:09:04;8.40;99.90
16929;DHT22;8581;47.334;11.190;2023-05-21T04:11:36;8.40;99.90
16929;DHT22;8581;47.334;11.190;2023-05-21T04:14:07;8.30;99.90
16929;DHT22;8581;47.334;11.190;2023-05-21T04:16:39;8.30;99.90
16929;DHT22;8581;47.334;11.190;2023-05-21T04:19:11;8.30;99.90
16929;DHT22;8581;47.334;11.190;2023-05-21T04:21:42;8.30;99.90
16929;DHT22;8581;47.334;11.190;2023-05-21T04:24:14;8.40;99.90
16929;DHT22;8581;47.334;11.190;2023-05-21T04:26:45;8.50;99.90
16929;DHT22;8581;47.334;11.190;2023-05-21T04:29:17;8.60;99.90
16929;DHT22;8581;47.334;11.190;2023-05-21T04:31:49;8.60;99.90
16929;DHT22;8581;47.334;11.190;2023-05-21T04:34:20;8.70;99.90
16929;DHT22;8581;47.334;11.190;2023-05-21T04:36:52;8.70;99.90
16929;DHT22;8581;47.334;11.190;2023-05-21T04:39:23;8.60;99.90
16929;DHT22;8581;47.334;11.190;2023-05-21T04:41:55;8.70;99.90
16929;DHT22;8581;47.334;11.190;2023-05-21T04:44:27;8.90;99.90
16929;DHT22;8581;47.334;11.190;2023-05-21T04:46:58;8.90;99.90
16929;DHT22;8581;47.334;11.190;2023-05-21T04:49:30;9.20;99.90
16929;DHT22;8581;47.334;11.190;2023-05-21T04:52:01;9.10;99.90
16929;DHT22;8581;47.334;11.190;2023-05-21T04:54:33;9.10;99.90
16929;DHT22;8581;47.334;11.190;2023-05-21T04:57:05;9.20;99.90
16929;DHT22;8581;47.334;11.190;2023-05-21T04:59:36;9.20;99.90
16929;DHT22;8581;47.334;11.190;2023-05-21T05:02:08;9.30;99.90
16929;DHT22;8581;47.334;11.190;2023-05-21T05:04:39;9.40;99.90
16929;DHT22;8581;47.334;11.190;2023-05-21T05:07:11;9.60;99.90
16929;DHT22;8581;47.334;11.190;2023-05-21T05:09:43;9.80;99.90
16929;DHT22;8581;47.334;11.190;2023-05-21T05:12:14;9.90;99.90
16929;DHT22;8581;47.334;11.190;2023-05-21T05:14:46;10.30;99.90
16929;DHT22;8581;47.334;11.190;2023-05-21T05:17:17;10.40;99.90
16929;DHT22;8581;47.334;11.190;2023-05-21T05:19:49;10.70;99.90
16929;DHT22;8581;47.334;11.190;2023-05-21T05:22:21;10.80;99.90
16929;DHT22;8581;47.334;11.190;2023-05-21T05:24:52;10.90;99.90
16929;DHT22;8581;47.334;11.190;2023-05-21T05:27:24;11.10;99.90
16929;DHT22;8581;47.334;11.190;2023-05-21T05:29:55;11.30;99.90
16929;DHT22;8581;47.334;11.190;2023-05-21T05:32:27;11.90;99.90
16929;DHT22;8581;47.334;11.190;2023-05-21T05:34:59;12.00;99.90
16929;DHT22;8581;47.334;11.190;2023-05-21T05:37:30;12.20;99.90
16929;DHT22;8581;47.334;11.190;2023-05-21T05:40:02;12.30;99.90
16929;DHT22;8581;47.334;11.190;2023-05-21T05:42:34;12.50;99.90
16929;DHT22;8581;47.334;11.190;2023-05-21T05:45:06;12.80;99.90
16929;DHT22;8581;47.334;11.190;2023-05-21T05:47:38;13.20;99.90
16929;DHT22;8581;47.334;11.190;2023-05-21T05:50:10;13.40;99.90
16929;DHT22;8581;47.334;11.190;2023-05-21T05:52:41;13.50;99.90
16929;DHT22;8581;47.334;11.190;2023-05-21T05:55:13;13.60;99.90
16929;DHT22;8581;47.334;11.190;2023-05-21T05:57:44;13.50;99.90
16929;DHT22;8581;47.334;11.190;2023-05-21T06:00:16;13.70;99.90
16929;DHT22;8581;47.334;11.190;2023-05-21T06:02:48;13.70;99.90
16929;DHT22;8581;47.334;11.190;2023-05-21T06:05:19;13.80;99.90
16929;DHT22;8581;47.334;11.190;2023-05-21T06:07:51;13.80;99.90
16929;DHT22;8581;47.334;11.190;2023-05-21T06:10:23;13.90;99.90
16929;DHT22;8581;47.334;11.190;2023-05-21T06:12:54;13.80;99.90
16929;DHT22;8581;47.334;11.190;2023-05-21T06:15:26;14.00;99.90
16929;DHT22;8581;47.334;11.190;2023-05-21T06:17:58;14.20;99.90
16929;DHT22;8581;47.334;11.190;2023-05-21T06:20:30;14.10;99.90
16929;DHT22;8581;47.334;11.190;2023-05-21T06:23:02;13.90;99.90
16929;DHT22;8581;47.334;11.190;2023-05-21T06:25:33;14.00;99.90
16929;DHT22;8581;47.334;11.190;2023-05-21T06:28:05;14.10;99.90
16929;DHT22;8581;47.334;11.190;2023-05-21T06:30:36;14.10;99.90
16929;DHT22;8581;47.334;11.190;2023-05-21T06:33:08;14.30;99.90
16929;DHT22;8581;47.334;11.190;2023-05-21T06:35:40;14.40;99.90
16929;DHT22;8581;47.334;11.190;2023-05-21T06:38:11;14.50;99.90
16929;DHT22;8581;47.334;11.190;2023-05-21T06:40:43;14.60;99.90
16929;DHT22;8581;47.334;11.190;2023-05-21T06:43:15;14.70;99.90
16929;DHT22;8581;47.334;11.190;2023-05-21T06:45:46;14.80;99.90
16929;DHT22;8581;47.334;11.190;2023-05-21T06:48:18;15.00;99.90
16929;DHT22;8581;47.334;11.190;2023-05-21T06:50:49;14.90;99.90
16929;DHT22;8581;47.334;11.190;2023-05-21T06:53:21;15.00;99.90
16929;DHT22;8581;47.334;11.190;2023-05-21T06:55:53;15.00;99.90
16929;DHT22;8581;47.334;11.190;2023-05-21T06:58:24;15.00;99.90
16929;DHT22;8581;47.334;11.190;2023-05-21T07:00:56;15.10;99.90
16929;DHT22;8581;47.334;11.190;2023-05-21T07:03:28;15.30;99.90
16929;DHT22;8581;47.334;11.190;2023-05-21T07:05:59;15.40;99.90
16929;DHT22;8581;47.334;11.190;2023-05-21T07:08:31;15.60;99.90
16929;DHT22;8581;47.334;11.190;2023-05-21T07:11:03;16.00;99.90
16929;DHT22;8581;47.334;11.190;2023-05-21T07:13:35;15.90;99.90
16929;DHT22;8581;47.334;11.190;2023-05-21T07:16:12;16.00;99.90
16929;DHT22;8581;47.334;11.190;2023-05-21T07:18:43;15.90;99.90
16929;DHT22;8581;47.334;11.190;2023-05-21T07:21:15;16.20;99.90
16929;DHT22;8581;47.334;11.190;2023-05-21T07:23:47;16.20;99.90
16929;DHT22;8581;47.334;11.190;2023-05-21T07:26:18;16.20;99.90
16929;DHT22;8581;47.334;11.190;2023-05-21T07:28:50;16.30;99.90
16929;DHT22;8581;47.334;11.190;2023-05-21T07:31:22;16.40;99.90
16929;DHT22;8581;47.334;11.190;2023-05-21T07:33:53;16.40;99.90
16929;DHT22;8581;47.334;11.190;2023-05-21T07:36:25;16.50;99.90
16929;DHT22;8581;47.334;11.190;2023-05-21T07:38:57;16.90;99.90
16929;DHT22;8581;47.334;11.190;2023-05-21T07:41:28;17.50;99.90
16929;DHT22;8581;47.334;11.190;2023-05-21T07:44:00;17.70;99.90
16929;DHT22;8581;47.334;11.190;2023-05-21T07:46:31;17.40;99.90
16929;DHT22;8581;47.334;11.190;2023-05-21T07:49:03;17.50;99.90
16929;DHT22;8581;47.334;11.190;2023-05-21T07:51:34;17.80;99.90
16929;DHT22;8581;47.334;11.190;2023-05-21T07:54:06;17.80;99.90
16929;DHT22;8581;47.334;11.190;2023-05-21T07:56:38;17.90;99.90
16929;DHT22;8581;47.334;11.190;2023-05-21T07:59:09;18.30;99.90
16929;DHT22;8581;47.334;11.190;2023-05-21T08:01:41;18.80;99.90
16929;DHT22;8581;47.334;11.190;2023-05-21T08:04:13;18.90;99.90
16929;DHT22;8581;47.334;11.190;2023-05-21T08:06:44;18.90;99.90
16929;DHT22;8581;47.334;11.190;2023-05-21T08:09:16;19.10;99.90
16929;DHT22;8581;47.334;11.190;2023-05-21T08:11:48;19.30;99.90
16929;DHT22;8581;47.334;11.190;2023-05-21T08:14:19;19.20;99.90
16929;DHT22;8581;47.334;11.190;2023-05-21T08:16:51;19.40;99.90
16929;DHT22;8581;47.334;11.190;2023-05-21T08:19:22;19.50;99.90
16929;DHT22;8581;47.334;11.190;2023-05-21T08:21:55;19.50;99.90
16929;DHT22;8581;47.334;11.190;2023-05-21T08:24:27;19.40;99.90
16929;DHT22;8581;47.334;11.190;2023-05-21T08:26:58;19.30;99.90
16929;DHT22;8581;47.334;11.190;2023-05-21T08:29:30;19.30;99.90
16929;DHT22;8581;47.334;11.190;2023-05-21T08:32:02;19.70;99.90
16929;DHT22;8581;47.334;11.190;2023-05-21T08:34:33;19.30;99.90
16929;DHT22;8581;47.334;11.190;2023-05-21T08:37:05;19.50;99.90
16929;DHT22;8581;47.334;11.190;2023-05-21T08:39:36;19.80;99.90
16929;DHT22;8581;47.334;11.190;2023-05-21T08:42:11;20.10;99.90
16929;DHT22;8581;47.334;11.190;2023-05-21T08:44:41;19.80;99.90
16929;DHT22;8581;47.334;11.190;2023-05-21T08:47:16;19.90;99.90
16929;DHT22;8581;47.334;11.190;2023-05-21T08:49:49;19.90;99.90
16929;DHT22;8581;47.334;11.190;2023-05-21T08:52:20;19.70;99.90
16929;DHT22;8581;47.334;11.190;2023-05-21T08:54:52;19.70;99.90
16929;DHT22;8581;47.334;11.190;2023-05-21T08:57:24;19.90;99.90
16929;DHT22;8581;47.334;11.190;2023-05-21T08:59:55;20.10;99.90
16929;DHT22;8581;47.334;11.190;2023-05-21T09:02:27;20.50;99.90
16929;DHT22;8581;47.334;11.190;2023-05-21T09:04:58;20.20;99.90
16929;DHT22;8581;47.334;11.190;2023-05-21T09:07:30;20.10;99.90
16929;DHT22;8581;47.334;11.190;2023-05-21T09:10:06;20.10;99.90
16929;DHT22;8581;47.334;11.190;2023-05-21T09:12:42;20.10;99.90
16929;DHT22;8581;47.334;11.190;2023-05-21T09:15:14;20.30;99.90
16929;DHT22;8581;47.334;11.190;2023-05-21T09:17:46;20.50;99.90
16929;DHT22;8581;47.334;11.190;2023-05-21T09:20:26;20.60;99.90
16929;DHT22;8581;47.334;11.190;2023-05-21T09:22:57;20.40;99.90
16929;DHT22;8581;47.334;11.190;2023-05-21T09:25:28;20.20;99.90
16929;DHT22;8581;47.334;11.190;2023-05-21T09:28:00;20.70;99.90
16929;DHT22;8581;47.334;11.190;2023-05-21T09:30:32;21.20;99.90
16929;DHT22;8581;47.334;11.190;2023-05-21T09:33:03;21.50;99.90
16929;DHT22;8581;47.334;11.190;2023-05-21T09:35:35;21.60;99.70
16929;DHT22;8581;47.334;11.190;2023-05-21T09:38:07;21.80;99.90
16929;DHT22;8581;47.334;11.190;2023-05-21T09:40:42;22.30;99.30
16929;DHT22;8581;47.334;11.190;2023-05-21T09:43:12;22.60;96.50
16929;DHT22;8581;47.334;11.190;2023-05-21T09:45:50;23.50;97.00
16929;DHT22;8581;47.334;11.190;2023-05-21T09:48:33;24.10;94.20
16929;DHT22;8581;47.334;11.190;2023-05-21T09:51:10;24.60;94.40
16929;DHT22;8581;47.334;11.190;2023-05-21T09:53:50;24.90;94.00
16929;DHT22;8581;47.334;11.190;2023-05-21T09:56:23;25.10;94.50
16929;DHT22;8581;47.334;11.190;2023-05-21T09:58:56;25.40;93.40
16929;DHT22;8581;47.334;11.190;2023-05-21T10:01:27;25.30;91.60
16929;DHT22;8581;47.334;11.190;2023-05-21T10:04:01;25.10;92.60
16929;DHT22;8581;47.334;11.190;2023-05-21T10:06:31;25.80;92.00
16929;DHT22;8581;47.334;11.190;2023-05-21T10:09:04;26.30;90.20
16929;DHT22;8581;47.334;11.190;2023-05-21T10:11:35;26.60;89.20
16929;DHT22;8581;47.334;11.190;2023-05-21T10:14:08;27.20;90.50
16929;DHT22;8581;47.334;11.190;2023-05-21T10:16:38;27.90;85.30
16929;DHT22;8581;47.334;11.190;2023-05-21T10:22:17;28.90;82.20
16929;DHT22;8581;47.334;11.190;2023-05-21T10:24:50;29.00;78.80
16929;DHT22;8581;47.334;11.190;2023-05-21T10:27:21;28.30;77.40
16929;DHT22;8581;47.334;11.190;2023-05-21T10:29:52;28.40;78.60
16929;DHT22;8581;47.334;11.190;2023-05-21T10:32:25;28.30;84.90
16929;DHT22;8581;47.334;11.190;2023-05-21T10:34:56;28.50;78.40
16929;DHT22;8581;47.334;11.190;2023-05-21T10:37:27;29.70;84.20
16929;DHT22;8581;47.334;11.190;2023-05-21T10:39:59;29.50;75.80
16929;DHT22;8581;47.334;11.190;2023-05-21T10:45:50;29.20;73.10
16929;DHT22;8581;47.334;11.190;2023-05-21T10:48:50;28.10;75.60
16929;DHT22;8581;47.334;11.190;2023-05-21T10:51:19;26.80;75.60
16929;DHT22;8581;47.334;11.190;2023-05-21T10:54:17;26.50;78.20
16929;DHT22;8581;47.334;11.190;2023-05-21T10:56:54;27.10;79.10
16929;DHT22;8581;47.334;11.190;2023-05-21T10:59:40;28.40;83.10
16929;DHT22;8581;47.334;11.190;2023-05-21T11:02:13;30.00;75.70
16929;DHT22;8581;47.334;11.190;2023-05-21T11:04:44;30.10;71.00
16929;DHT22;8581;47.334;11.190;2023-05-21T11:07:21;30.60;73.70
16929;DHT22;8581;47.334;11.190;2023-05-21T11:09:49;30.80;69.10
16929;DHT22;8581;47.334;11.190;2023-05-21T11:12:20;30.80;68.90
16929;DHT22;8581;47.334;11.190;2023-05-21T11:14:55;29.90;68.30
16929;DHT22;8581;47.334;11.190;2023-05-21T11:17:35;29.60;69.50
16929;DHT22;8581;47.334;11.190;2023-05-21T11:20:11;31.00;67.80
16929;DHT22;8581;47.334;11.190;2023-05-21T11:22:42;31.90;65.80
16929;DHT22;8581;47.334;11.190;2023-05-21T11:25:14;32.00;66.70
16929;DHT22;8581;47.334;11.190;2023-05-21T11:27:45;31.50;63.50
16929;DHT22;8581;47.334;11.190;2023-05-21T11:30:17;31.10;64.30
16929;DHT22;8581;47.334;11.190;2023-05-21T11:35:56;31.40;70.40
16929;DHT22;8581;47.334;11.190;2023-05-21T11:38:29;31.00;68.70
16929;DHT22;8581;47.334;11.190;2023-05-21T11:41:00;31.50;67.00
16929;DHT22;8581;47.334;11.190;2023-05-21T11:43:32;32.30;66.40
16929;DHT22;8581;47.334;11.190;2023-05-21T11:46:03;33.50;61.80
16929;DHT22;8581;47.334;11.190;2023-05-21T11:48:35;34.90;61.30
16929;DHT22;8581;47.334;11.190;2023-05-21T11:51:06;36.00;58.00
16929;DHT22;8581;47.334;11.190;2023-05-21T11:53:39;36.00;56.80
16929;DHT22;8581;47.334;11.190;2023-05-21T11:56:10;35.80;58.10
16929;DHT22;8581;47.334;11.190;2023-05-21T11:58:42;36.30;58.20
16929;DHT22;8581;47.334;11.190;2023-05-21T12:01:28;35.60;58.30
16929;DHT22;8581;47.334;11.190;2023-05-21T12:04:02;35.00;57.20
16929;DHT22;8581;47.334;11.190;2023-05-21T12:06:31;35.70;55.90
16929;DHT22;8581;47.334;11.190;2023-05-21T12:09:03;35.50;54.40
16929;DHT22;8581;47.334;11.190;2023-05-21T12:11:38;34.90;58.90
16929;DHT22;8581;47.334;11.190;2023-05-21T12:14:10;35.20;58.70
16929;DHT22;8581;47.334;11.190;2023-05-21T12:16:41;33.20;55.30
16929;DHT22;8581;47.334;11.190;2023-05-21T12:19:15;31.40;56.50
16929;DHT22;8581;47.334;11.190;2023-05-21T12:21:45;31.10;56.80
16929;DHT22;8581;47.334;11.190;2023-05-21T12:24:19;30.30;58.20
16929;DHT22;8581;47.334;11.190;2023-05-21T12:26:56;29.90;58.50
16929;DHT22;8581;47.334;11.190;2023-05-21T12:29:27;29.80;58.40
16929;DHT22;8581;47.334;11.190;2023-05-21T12:31:58;29.60;59.60
16929;DHT22;8581;47.334;11.190;2023-05-21T12:34:37;30.40;59.20
16929;DHT22;8581;47.334;11.190;2023-05-21T12:37:10;31.50;56.60
16929;DHT22;8581;47.334;11.190;2023-05-21T12:39:42;32.20;56.80
16929;DHT22;8581;47.334;11.190;2023-05-21T12:42:14;30.70;56.40
16929;DHT22;8581;47.334;11.190;2023-05-21T12:44:46;27.90;59.40
16929;DHT22;8581;47.334;11.190;2023-05-21T12:47:17;28.10;59.00
16929;DHT22;8581;47.334;11.190;2023-05-21T12:49:49;28.30;59.70
16929;DHT22;8581;47.334;11.190;2023-05-21T12:52:20;27.00;60.60
16929;DHT22;8581;47.334;11.190;2023-05-21T12:54:53;26.90;64.60
16929;DHT22;8581;47.334;11.190;2023-05-21T12:57:25;26.70;60.90
16929;DHT22;8581;47.334;11.190;2023-05-21T12:59:56;27.70;60.90
16929;DHT22;8581;47.334;11.190;2023-05-21T13:02:29;29.40;59.10
16929;DHT22;8581;47.334;11.190;2023-05-21T13:05:01;29.80;59.00
16929;DHT22;8581;47.334;11.190;2023-05-21T13:07:33;29.80;57.30
16929;DHT22;8581;47.334;11.190;2023-05-21T13:10:04;29.80;58.90
16929;DHT22;8581;47.334;11.190;2023-05-21T13:12:35;30.30;57.60
16929;DHT22;8581;47.334;11.190;2023-05-21T13:15:07;30.90;57.70
16929;DHT22;8581;47.334;11.190;2023-05-21T13:17:39;32.90;56.20
16929;DHT22;8581;47.334;11.190;2023-05-21T13:20:12;34.30;55.00
16929;DHT22;8581;47.334;11.190;2023-05-21T13:22:44;32.30;56.00
16929;DHT22;8581;47.334;11.190;2023-05-21T13:25:17;32.00;54.80
16929;DHT22;8581;47.334;11.190;2023-05-21T13:27:49;31.80;55.40
16929;DHT22;8581;47.334;11.190;2023-05-21T13:30:20;32.70;54.10
16929;DHT22;8581;47.334;11.190;2023-05-21T13:32:52;33.50;54.70
16929;DHT22;8581;47.334;11.190;2023-05-21T13:35:23;34.80;54.10
16929;DHT22;8581;47.334;11.190;2023-05-21T13:37:55;34.10;52.50
16929;DHT22;8581;47.334;11.190;2023-05-21T13:40:26;33.90;52.80
16929;DHT22;8581;47.334;11.190;2023-05-21T13:42:58;34.50;52.70
16929;DHT22;8581;47.334;11.190;2023-05-21T13:45:30;35.20;55.30
16929;DHT22;8581;47.334;11.190;2023-05-21T13:48:01;36.50;51.50
16929;DHT22;8581;47.334;11.190;2023-05-21T13:50:33;37.20;49.30
16929;DHT22;8581;47.334;11.190;2023-05-21T13:53:04;35.30;50.70
16929;DHT22;8581;47.334;11.190;2023-05-21T13:55:36;33.90;51.70
16929;DHT22;8581;47.334;11.190;2023-05-21T13:58:08;34.50;52.70
16929;DHT22;8581;47.334;11.190;2023-05-21T14:00:39;35.00;52.50
16929;DHT22;8581;47.334;11.190;2023-05-21T14:03:11;35.20;52.70
16929;DHT22;8581;47.334;11.190;2023-05-21T14:05:42;35.20;51.80
16929;DHT22;8581;47.334;11.190;2023-05-21T14:08:14;35.00;54.70
16929;DHT22;8581;47.334;11.190;2023-05-21T14:10:46;34.50;51.90
16929;DHT22;8581;47.334;11.190;2023-05-21T14:13:17;34.00;51.70
16929;DHT22;8581;47.334;11.190;2023-05-21T14:15:49;34.30;51.70
16929;DHT22;8581;47.334;11.190;2023-05-21T14:18:20;35.60;49.80
16929;DHT22;8581;47.334;11.190;2023-05-21T14:20:52;36.70;50.60
16929;DHT22;8581;47.334;11.190;2023-05-21T14:23:24;35.80;50.30
16929;DHT22;8581;47.334;11.190;2023-05-21T14:25:55;35.70;53.10
16929;DHT22;8581;47.334;11.190;2023-05-21T14:28:27;35.60;51.00
16929;DHT22;8581;47.334;11.190;2023-05-21T14:30:58;35.40;49.90
16929;DHT22;8581;47.334;11.190;2023-05-21T14:33:30;35.80;52.20
16929;DHT22;8581;47.334;11.190;2023-05-21T14:36:02;34.70;51.90
16929;DHT22;8581;47.334;11.190;2023-05-21T14:38:33;33.10;51.30
16929;DHT22;8581;47.334;11.190;2023-05-21T14:41:05;32.00;53.40
16929;DHT22;8581;47.334;11.190;2023-05-21T14:43:37;32.00;54.00
16929;DHT22;8581;47.334;11.190;2023-05-21T14:46:08;32.00;53.10
16929;DHT22;8581;47.334;11.190;2023-05-21T14:48:40;32.00;54.10
16929;DHT22;8581;47.334;11.190;2023-05-21T14:51:12;31.90;53.70
16929;DHT22;8581;47.334;11.190;2023-05-21T14:53:43;31.40;53.50
16929;DHT22;8581;47.334;11.190;2023-05-21T14:56:15;32.50;58.20
16929;DHT22;8581;47.334;11.190;2023-05-21T14:58:46;33.60;52.70
16929;DHT22;8581;47.334;11.190;2023-05-21T15:01:18;34.20;52.50
16929;DHT22;8581;47.334;11.190;2023-05-21T15:03:49;34.30;51.60
16929;DHT22;8581;47.334;11.190;2023-05-21T15:06:21;34.20;52.80
16929;DHT22;8581;47.334;11.190;2023-05-21T15:08:53;34.90;53.30
16929;DHT22;8581;47.334;11.190;2023-05-21T15:11:24;34.50;50.80
16929;DHT22;8581;47.334;11.190;2023-05-21T15:13:56;33.40;51.60
16929;DHT22;8581;47.334;11.190;2023-05-21T15:16:27;32.80;52.30
16929;DHT22;8581;47.334;11.190;2023-05-21T15:18:59;32.00;54.00
16929;DHT22;8581;47.334;11.190;2023-05-21T15:21:31;32.70;53.30
16929;DHT22;8581;47.334;11.190;2023-05-21T15:24:02;33.60;52.30
16929;DHT22;8581;47.334;11.190;2023-05-21T15:26:34;33.70;52.60
16929;DHT22;8581;47.334;11.190;2023-05-21T15:29:06;33.30;52.70
16929;DHT22;8581;47.334;11.190;2023-05-21T15:31:37;34.30;52.10
16929;DHT22;8581;47.334;11.190;2023-05-21T15:34:09;34.00;51.80
16929;DHT22;8581;47.334;11.190;2023-05-21T15:36:40;32.70;52.50
16929;DHT22;8581;47.334;11.190;2023-05-21T15:39:12;32.30;54.60
16929;DHT22;8581;47.334;11.190;2023-05-21T15:41:44;31.90;54.10
16929;DHT22;8581;47.334;11.190;2023-05-21T15:44:15;32.60;53.50
16929;DHT22;8581;47.334;11.190;2023-05-21T15:46:47;32.10;53.60
16929;DHT22;8581;47.334;11.190;2023-05-21T15:49:20;32.20;54.10
16929;DHT22;8581;47.334;11.190;2023-05-21T15:51:52;31.80;55.30
16929;DHT22;8581;47.334;11.190;2023-05-21T15:54:24;32.00;54.90
16929;DHT22;8581;47.334;11.190;2023-05-21T15:56:55;32.40;54.30
16929;DHT22;8581;47.334;11.190;2023-05-21T15:59:27;33.20;56.10
16929;DHT22;8581;47.334;11.190;2023-05-21T16:01:59;33.40;53.20
16929;DHT22;8581;47.334;11.190;2023-05-21T16:04:30;32.60;51.70
16929;DHT22;8581;47.334;11.190;2023-05-21T16:07:02;30.90;54.40
16929;DHT22;8581;47.334;11.190;2023-05-21T16:09:34;30.40;55.70
16929;DHT22;8581;47.334;11.190;2023-05-21T16:12:05;30.80;54.70
16929;DHT22;8581;47.334;11.190;2023-05-21T16:14:37;31.90;54.60
16929;DHT22;8581;47.334;11.190;2023-05-21T16:17:09;32.40;53.60